createdAt,value
2022-11-14T00:00:53.368Z,8.80
2022-11-14T00:03:39.758Z,8.80
2022-11-14T00:06:27.622Z,8.80
2022-11-14T00:09:14.345Z,8.70
2022-11-14T00:12:00.714Z,8.70
2022-11-14T00:14:47.350Z,8.60
2022-11-14T00:17:33.754Z,8.60
2022-11-14T00:20:20.207Z,8.60
2022-11-14T00:23:08.062Z,8.60
2022-11-14T00:25:54.919Z,8.60
2022-11-14T00:28:41.309Z,8.60
2022-11-14T00:31:27.786Z,8.60
2022-11-14T00:34:14.540Z,8.60
2022-11-14T00:37:00.962Z,8.60
2022-11-14T00:39:49.050Z,8.60
2022-11-14T00:42:35.655Z,8.50
2022-11-14T00:45:22.285Z,8.50
2022-11-14T00:48:08.604Z,8.50
2022-11-14T00:50:54.952Z,8.40
2022-11-14T00:53:41.481Z,8.40
2022-11-14T00:56:29.559Z,8.50
2022-11-14T00:59:16.264Z,8.50
2022-11-14T01:02:02.851Z,8.40
2022-11-14T01:04:49.279Z,8.40
2022-11-14T01:07:35.759Z,8.30
2022-11-14T01:10:22.390Z,8.40
2022-11-14T01:13:10.738Z,8.40
2022-11-14T01:16:01.422Z,8.40
2022-11-14T01:18:48.370Z,8.30
2022-11-14T01:21:34.999Z,8.30
2022-11-14T01:24:21.374Z,8.30
2022-11-14T01:27:07.792Z,8.30
2022-11-14T01:29:55.459Z,8.30
2022-11-14T01:32:42.225Z,8.30
2022-11-14T01:35:28.912Z,8.30
2022-11-14T01:38:16.331Z,8.30
2022-11-14T01:41:03.262Z,8.20
2022-11-14T01:43:50.227Z,8.30
2022-11-14T01:46:40.625Z,8.20
2022-11-14T01:49:32.696Z,8.30
2022-11-14T01:52:22.912Z,8.30
2022-11-14T01:55:11.392Z,8.30
2022-11-14T01:57:58.932Z,8.30
2022-11-14T02:00:46.052Z,8.30
2022-11-14T02:03:36.675Z,8.20
2022-11-14T02:06:26.928Z,8.30
2022-11-14T02:09:13.577Z,8.20
2022-11-14T02:12:03.468Z,8.20
2022-11-14T02:14:53.675Z,8.20
2022-11-14T02:17:41.324Z,8.10
2022-11-14T02:20:33.709Z,8.10
2022-11-14T02:23:27.746Z,8.20
2022-11-14T02:26:14.480Z,8.20
2022-11-14T02:29:01.089Z,8.20
2022-11-14T02:31:47.553Z,8.20
2022-11-14T02:34:34.719Z,8.20
2022-11-14T02:37:22.905Z,8.20
2022-11-14T02:40:11.121Z,8.10
2022-11-14T02:42:57.851Z,8.10
2022-11-14T02:45:44.301Z,8.10
2022-11-14T02:48:30.880Z,8.10
2022-11-14T02:51:17.627Z,8.10
2022-11-14T02:54:05.524Z,8.00
2022-11-14T02:56:52.216Z,8.00
2022-11-14T02:59:38.653Z,7.90
2022-11-14T03:02:25.528Z,8.00
2022-11-14T03:05:12.052Z,8.00
2022-11-14T03:07:58.550Z,8.00
2022-11-14T03:10:46.686Z,7.90
2022-11-14T03:13:33.084Z,8.00
2022-11-14T03:16:19.532Z,8.00
2022-11-14T03:19:06.332Z,8.00
2022-11-14T03:21:52.755Z,8.00
2022-11-14T03:24:39.169Z,8.00
2022-11-14T03:27:27.151Z,8.00
2022-11-14T03:30:14.591Z,8.10
2022-11-14T03:33:01.126Z,8.00
2022-11-14T03:35:47.533Z,8.00
2022-11-14T03:38:35.072Z,7.90
2022-11-14T03:41:21.720Z,8.00
2022-11-14T03:44:09.616Z,8.00
2022-11-14T03:46:56.301Z,8.00
2022-11-14T03:49:45.020Z,8.00
2022-11-14T03:52:31.433Z,8.00
2022-11-14T03:55:18.069Z,8.00
2022-11-14T03:58:04.777Z,7.90
2022-11-14T04:00:53.880Z,7.90
2022-11-14T04:03:40.875Z,7.90
2022-11-14T04:06:27.280Z,7.80
2022-11-14T04:09:13.908Z,7.80
2022-11-14T04:12:00.554Z,7.90
2022-11-14T04:14:47.020Z,7.90
2022-11-14T04:17:39.648Z,7.90
2022-11-14T04:20:26.918Z,7.80
2022-11-14T04:23:13.585Z,7.90
2022-11-14T04:26:00.241Z,7.90
2022-11-14T04:28:46.679Z,7.90
2022-11-14T04:31:33.223Z,7.90
2022-11-14T04:34:21.320Z,7.90
2022-11-14T04:37:07.854Z,7.80
2022-11-14T04:39:58.474Z,7.90
2022-11-14T04:42:44.806Z,7.90
2022-11-14T04:45:31.526Z,7.90
2022-11-14T04:48:17.937Z,7.90
2022-11-14T04:51:06.042Z,8.00
2022-11-14T04:53:52.903Z,7.90
2022-11-14T04:56:39.282Z,7.90
2022-11-14T04:59:25.604Z,7.90
2022-11-14T05:02:12.197Z,7.90
2022-11-14T05:04:58.803Z,7.90
2022-11-14T05:07:46.652Z,7.90
2022-11-14T05:10:33.617Z,7.90
2022-11-14T05:13:20.341Z,7.80
2022-11-14T05:16:07.297Z,7.80
2022-11-14T05:18:55.079Z,7.80
2022-11-14T05:21:41.471Z,7.80
2022-11-14T05:24:29.568Z,7.90
2022-11-14T05:27:16.116Z,7.80
2022-11-14T05:30:02.711Z,7.80
2022-11-14T05:32:49.084Z,7.80
2022-11-14T05:35:35.837Z,7.90
2022-11-14T05:38:22.393Z,7.80
2022-11-14T05:41:12.287Z,7.90
2022-11-14T05:43:58.876Z,7.80
2022-11-14T05:46:45.398Z,7.80
2022-11-14T05:49:31.821Z,7.80
2022-11-14T05:52:19.025Z,7.80
2022-11-14T05:55:06.267Z,7.80
2022-11-14T05:57:54.059Z,7.80
2022-11-14T06:00:48.070Z,7.70
2022-11-14T06:03:40.755Z,7.70
2022-11-14T06:06:27.301Z,7.70
2022-11-14T06:09:13.680Z,7.70
2022-11-14T06:12:00.339Z,7.70
2022-11-14T06:14:48.970Z,7.70
2022-11-14T06:17:35.711Z,7.60
2022-11-14T06:20:22.103Z,7.70
2022-11-14T06:23:08.566Z,7.70
2022-11-14T06:26:00.634Z,7.70
2022-11-14T06:28:47.101Z,7.60
2022-11-14T06:31:35.033Z,7.70
2022-11-14T06:34:21.436Z,7.70
2022-11-14T06:37:07.856Z,7.60
2022-11-14T06:39:54.320Z,7.70
2022-11-14T06:42:40.732Z,7.70
2022-11-14T06:45:27.048Z,7.70
2022-11-14T06:48:14.826Z,7.70
2022-11-14T06:51:02.645Z,7.70
2022-11-14T06:53:49.080Z,7.70
2022-11-14T06:56:35.589Z,7.60
2022-11-14T06:59:22.132Z,7.70
2022-11-14T07:02:11.837Z,7.60
2022-11-14T07:04:59.650Z,7.70
2022-11-14T07:07:46.354Z,7.60
2022-11-14T07:10:32.709Z,7.60
2022-11-14T07:13:18.964Z,7.70
2022-11-14T07:16:06.374Z,7.70
2022-11-14T07:18:53.113Z,7.60
2022-11-14T07:21:41.177Z,7.60
2022-11-14T07:24:27.965Z,7.60
2022-11-14T07:27:14.511Z,7.60
2022-11-14T07:30:00.829Z,7.60
2022-11-14T07:32:47.252Z,7.50
2022-11-14T07:35:34.144Z,7.50
2022-11-14T07:38:22.076Z,7.50
2022-11-14T07:41:11.437Z,7.60
2022-11-14T07:43:57.919Z,7.50
2022-11-14T07:46:44.288Z,7.60
2022-11-14T07:49:30.634Z,7.60
2022-11-14T07:52:17.084Z,7.60
2022-11-14T07:55:05.061Z,7.50
2022-11-14T07:57:54.398Z,7.50
2022-11-14T08:00:41.071Z,7.50
2022-11-14T08:03:27.525Z,7.60
2022-11-14T08:06:15.629Z,7.60
2022-11-14T08:09:02.320Z,7.60
2022-11-14T08:11:50.076Z,7.60
2022-11-14T08:14:36.497Z,7.50
2022-11-14T08:17:23.299Z,7.50
2022-11-14T08:20:10.927Z,7.50
2022-11-14T08:23:03.639Z,7.40
2022-11-14T08:25:50.366Z,7.50
2022-11-14T08:28:38.243Z,7.50
2022-11-14T08:31:25.116Z,7.50
2022-11-14T08:34:11.762Z,7.60
2022-11-14T08:36:58.366Z,7.60
2022-11-14T08:39:44.804Z,7.60
2022-11-14T08:42:31.427Z,7.50
2022-11-14T08:45:19.266Z,7.50
2022-11-14T08:48:06.317Z,7.50
2022-11-14T08:50:52.911Z,7.40
2022-11-14T08:53:39.402Z,7.50
2022-11-14T08:56:25.832Z,7.50
2022-11-14T08:59:12.394Z,7.50
2022-11-14T09:02:00.191Z,7.50
2022-11-14T09:04:46.515Z,7.60
2022-11-14T09:07:33.871Z,7.70
2022-11-14T09:10:20.877Z,7.60
2022-11-14T09:13:07.176Z,7.70
2022-11-14T09:15:53.865Z,7.60
2022-11-14T09:18:41.960Z,7.70
2022-11-14T09:21:28.468Z,7.70
2022-11-14T09:24:14.928Z,7.70
2022-11-14T09:27:01.352Z,7.70
2022-11-14T09:29:47.886Z,7.70
2022-11-14T09:32:34.506Z,7.70
2022-11-14T09:35:22.781Z,7.70
2022-11-14T09:38:11.287Z,7.60
2022-11-14T09:41:05.939Z,7.70
2022-11-14T09:44:27.048Z,7.80
2022-11-14T09:47:20.691Z,7.80
2022-11-14T09:50:14.626Z,7.70
2022-11-14T09:53:09.033Z,7.70
2022-11-14T09:55:55.569Z,7.80
2022-11-14T09:58:43.084Z,7.80
2022-11-14T10:01:37.740Z,7.80
2022-11-14T10:04:34.824Z,7.80
2022-11-14T10:07:34.247Z,7.80
2022-11-14T10:10:39.018Z,7.70
2022-11-14T10:13:48.001Z,7.70
2022-11-14T10:16:43.089Z,7.80
2022-11-14T10:19:42.673Z,7.80
2022-11-14T10:22:47.624Z,7.70
2022-11-14T10:25:49.929Z,7.80
2022-11-14T10:29:05.771Z,7.80
2022-11-14T10:32:05.042Z,7.90
2022-11-14T10:34:55.488Z,8.00
2022-11-14T10:37:50.905Z,8.00
2022-11-14T10:40:42.212Z,8.00
2022-11-14T10:43:33.439Z,8.00
2022-11-14T10:46:23.911Z,8.00
2022-11-14T10:49:19.153Z,8.00
2022-11-14T10:52:12.108Z,8.10
2022-11-14T10:55:06.322Z,8.10
2022-11-14T10:57:54.198Z,8.20
2022-11-14T11:00:41.000Z,8.20
2022-11-14T11:03:43.168Z,8.20
2022-11-14T11:06:30.693Z,8.20
2022-11-14T11:09:43.766Z,8.30
2022-11-14T11:12:44.562Z,8.30
2022-11-14T11:15:33.636Z,8.20
2022-11-14T11:18:29.186Z,8.30
2022-11-14T11:21:17.552Z,8.30
2022-11-14T11:24:04.306Z,8.50
2022-11-14T11:27:15.475Z,8.50
2022-11-14T11:30:09.497Z,8.60
2022-11-14T11:32:57.304Z,8.70
2022-11-14T11:35:46.556Z,8.70
2022-11-14T11:38:34.763Z,8.70
2022-11-14T11:42:06.264Z,8.70
2022-11-14T11:44:39.040Z,8.80
2022-11-14T11:47:28.067Z,8.80
2022-11-14T11:50:19.119Z,8.80
2022-11-14T11:53:17.567Z,8.90
2022-11-14T11:56:10.681Z,8.90
2022-11-14T11:59:04.385Z,8.90
2022-11-14T12:01:52.527Z,9.00
2022-11-14T12:04:39.579Z,9.00
2022-11-14T12:07:38.014Z,9.00
2022-11-14T12:10:28.942Z,9.10
2022-11-14T12:14:03.946Z,9.00
2022-11-14T12:17:08.065Z,9.00
2022-11-14T12:20:36.001Z,8.90
2022-11-14T12:23:58.006Z,8.90
2022-11-14T12:27:06.118Z,9.00
2022-11-14T12:30:09.698Z,8.90
2022-11-14T12:33:02.228Z,8.90
2022-11-14T12:35:52.532Z,9.00
2022-11-14T12:38:45.783Z,9.00
2022-11-14T12:41:37.995Z,9.00
2022-11-14T12:44:35.087Z,9.00
2022-11-14T12:47:24.096Z,9.00
2022-11-14T12:50:41.533Z,8.90
2022-11-14T12:53:44.469Z,8.90
2022-11-14T12:56:53.852Z,8.90
2022-11-14T12:59:52.850Z,8.90
2022-11-14T13:03:14.365Z,9.00
2022-11-14T13:06:04.932Z,9.00
2022-11-14T13:09:04.288Z,9.10
2022-11-14T13:12:10.776Z,9.10
2022-11-14T13:15:16.513Z,9.20
2022-11-14T13:18:34.557Z,9.20
2022-11-14T13:21:45.363Z,9.30
2022-11-14T13:25:05.967Z,9.30
2022-11-14T13:28:18.942Z,9.30
2022-11-14T13:31:19.227Z,9.40
2022-11-14T13:34:33.659Z,9.30
2022-11-14T13:37:36.160Z,9.30
2022-11-14T13:40:29.316Z,9.30
2022-11-14T13:43:23.675Z,9.30
2022-11-14T13:46:17.377Z,9.30
2022-11-14T13:49:23.594Z,9.40
2022-11-14T13:52:13.660Z,9.40
2022-11-14T13:55:01.649Z,9.30
2022-11-14T13:57:58.835Z,9.30
2022-11-14T14:01:01.494Z,9.40
2022-11-14T14:04:08.769Z,9.30
2022-11-14T14:07:06.295Z,9.30
2022-11-14T14:10:03.040Z,9.30
2022-11-14T14:13:05.554Z,9.40
2022-11-14T14:16:05.044Z,9.30
2022-11-14T14:19:03.285Z,9.30
2022-11-14T14:21:55.689Z,9.30
2022-11-14T14:24:53.115Z,9.30
2022-11-14T14:27:58.066Z,9.30
2022-11-14T14:31:05.320Z,9.30
2022-11-14T14:33:53.537Z,9.30
2022-11-14T14:36:50.573Z,9.20
2022-11-14T14:39:37.089Z,9.20
2022-11-14T14:42:23.677Z,9.20
2022-11-14T14:45:17.629Z,9.30
2022-11-14T14:48:12.298Z,9.20
2022-11-14T14:51:00.322Z,9.10
2022-11-14T14:53:54.045Z,9.10
2022-11-14T14:56:41.039Z,9.10
2022-11-14T14:59:29.751Z,9.10
2022-11-14T15:02:18.789Z,9.10
2022-11-14T15:05:07.610Z,9.00
2022-11-14T15:07:57.068Z,9.00
2022-11-14T15:10:44.194Z,8.90
2022-11-14T15:13:32.102Z,8.90
2022-11-14T15:16:18.873Z,8.90
2022-11-14T15:19:05.968Z,8.90
2022-11-14T15:22:04.960Z,8.90
2022-11-14T15:25:19.420Z,8.90
2022-11-14T15:28:16.488Z,8.90
2022-11-14T15:31:05.230Z,8.90
2022-11-14T15:34:07.214Z,8.90
2022-11-14T15:37:25.697Z,8.80
2022-11-14T15:40:18.880Z,8.80
2022-11-14T15:43:36.958Z,8.70
2022-11-14T15:46:40.532Z,8.70
2022-11-14T15:49:28.211Z,8.80
2022-11-14T15:52:22.788Z,8.70
2022-11-14T15:55:17.915Z,8.70
2022-11-14T15:58:27.312Z,8.60
2022-11-14T16:01:19.961Z,8.60
2022-11-14T16:04:06.928Z,8.60
2022-11-14T16:06:54.982Z,8.50
2022-11-14T16:09:42.322Z,8.50
2022-11-14T16:12:30.359Z,8.50
2022-11-14T16:15:17.693Z,8.40
2022-11-14T16:18:06.544Z,8.50
2022-11-14T16:20:52.972Z,8.40
2022-11-14T16:23:39.480Z,8.40
2022-11-14T16:26:26.936Z,8.40
2022-11-14T16:29:15.313Z,8.40
2022-11-14T16:32:02.996Z,8.30
2022-11-14T16:34:49.538Z,8.30
2022-11-14T16:37:38.266Z,8.30
2022-11-14T16:40:28.023Z,8.30
2022-11-14T16:43:15.460Z,8.30
2022-11-14T16:46:06.409Z,8.20
2022-11-14T16:48:53.069Z,8.30
2022-11-14T16:51:49.092Z,8.30
2022-11-14T16:54:36.237Z,8.30
2022-11-14T16:57:22.739Z,8.20
2022-11-14T17:00:12.291Z,8.20
2022-11-14T17:03:00.358Z,8.20
2022-11-14T17:05:48.183Z,8.20
2022-11-14T17:08:34.628Z,8.10
2022-11-14T17:11:21.193Z,8.20
2022-11-14T17:14:07.717Z,8.10
2022-11-14T17:16:54.487Z,8.10
2022-11-14T17:19:45.924Z,8.10
2022-11-14T17:22:32.611Z,8.20
2022-11-14T17:25:18.887Z,8.10
2022-11-14T17:28:05.626Z,8.20
2022-11-14T17:30:52.287Z,8.20
2022-11-14T17:33:39.605Z,8.10
2022-11-14T17:36:29.505Z,8.10
2022-11-14T17:39:16.137Z,8.10
2022-11-14T17:42:02.739Z,8.10
2022-11-14T17:44:49.107Z,8.00
2022-11-14T17:47:35.728Z,8.10
2022-11-14T17:50:22.219Z,8.00
2022-11-14T17:53:10.186Z,8.00
2022-11-14T17:55:57.738Z,8.00
2022-11-14T17:58:44.922Z,8.00
2022-11-14T18:01:31.693Z,8.00
2022-11-14T18:04:18.431Z,8.00
2022-11-14T18:07:05.137Z,8.00
2022-11-14T18:09:53.465Z,7.90
2022-11-14T18:12:40.482Z,7.90
2022-11-14T18:15:28.336Z,8.00
2022-11-14T18:18:14.933Z,7.90
2022-11-14T18:21:07.710Z,7.90
2022-11-14T18:23:55.590Z,7.90
2022-11-14T18:26:43.497Z,8.00
2022-11-14T18:29:31.098Z,7.90
2022-11-14T18:32:18.055Z,7.90
2022-11-14T18:35:04.880Z,7.90
2022-11-14T18:37:51.255Z,7.90
2022-11-14T18:40:37.980Z,7.90
2022-11-14T18:43:26.427Z,7.90
2022-11-14T18:46:14.953Z,7.80
2022-11-14T18:49:02.092Z,7.80
2022-11-14T18:51:49.026Z,7.80
2022-11-14T18:54:35.528Z,7.80
2022-11-14T18:57:21.945Z,7.70
2022-11-14T19:00:11.933Z,7.60
2022-11-14T19:03:01.047Z,7.60
2022-11-14T19:05:51.864Z,7.60
2022-11-14T19:08:39.710Z,7.50
2022-11-14T19:11:44.881Z,7.50
2022-11-14T19:14:31.713Z,7.60
2022-11-14T19:17:22.508Z,7.60
2022-11-14T19:20:14.598Z,7.60
2022-11-14T19:23:01.263Z,7.70
2022-11-14T19:25:48.144Z,7.70
2022-11-14T19:28:34.840Z,7.80
2022-11-14T19:31:23.022Z,7.80
2022-11-14T19:34:11.761Z,7.70
2022-11-14T19:37:00.295Z,7.70
2022-11-14T19:39:47.724Z,7.60
2022-11-14T19:42:34.680Z,7.50
2022-11-14T19:45:22.232Z,7.60
2022-11-14T19:48:08.784Z,7.50
2022-11-14T19:51:02.560Z,7.50
2022-11-14T19:53:50.072Z,7.70
2022-11-14T19:56:39.245Z,7.60
2022-11-14T19:59:28.259Z,7.60
2022-11-14T20:02:15.741Z,7.70
2022-11-14T20:05:03.141Z,7.80
2022-11-14T20:07:51.896Z,7.70
2022-11-14T20:10:48.562Z,7.70
2022-11-14T20:13:38.598Z,7.70
2022-11-14T20:16:28.075Z,7.80
2022-11-14T20:19:16.243Z,7.70
2022-11-14T20:22:04.535Z,7.60
2022-11-14T20:24:52.933Z,7.60
2022-11-14T20:27:39.712Z,7.50
2022-11-14T20:30:26.894Z,7.40
2022-11-14T20:33:14.162Z,7.40
2022-11-14T20:36:04.214Z,7.30
2022-11-14T20:38:51.317Z,7.40
2022-11-14T20:41:39.157Z,7.30
2022-11-14T20:44:25.979Z,7.20
2022-11-14T20:47:12.505Z,7.20
2022-11-14T20:49:58.739Z,7.20
2022-11-14T20:52:46.897Z,7.20
2022-11-14T20:55:33.823Z,7.20
2022-11-14T20:58:22.038Z,7.20
2022-11-14T21:01:08.960Z,7.20
2022-11-14T21:03:55.415Z,7.20
2022-11-14T21:06:41.803Z,7.10
2022-11-14T21:09:28.207Z,7.10
2022-11-14T21:12:14.813Z,7.00
2022-11-14T21:15:02.704Z,7.00
2022-11-14T21:17:49.363Z,7.00
2022-11-14T21:20:35.766Z,7.00
2022-11-14T21:23:22.184Z,7.00
2022-11-14T21:26:10.093Z,7.00
2022-11-14T21:28:59.070Z,7.00
2022-11-14T21:31:47.593Z,6.90
2022-11-14T21:34:34.983Z,6.90
2022-11-14T21:37:21.622Z,6.90
2022-11-14T21:40:09.971Z,6.90
2022-11-14T21:42:56.769Z,6.80
2022-11-14T21:45:43.089Z,6.80
2022-11-14T21:48:37.481Z,6.80
2022-11-14T21:51:28.777Z,6.70
2022-11-14T21:54:15.525Z,6.80
2022-11-14T21:57:06.949Z,6.80
2022-11-14T21:59:56.149Z,6.80
2022-11-14T22:03:00.321Z,6.90
2022-11-14T22:05:48.400Z,6.90
2022-11-14T22:08:35.204Z,6.90
2022-11-14T22:11:21.850Z,6.80
2022-11-14T22:14:09.011Z,6.80
2022-11-14T22:16:55.591Z,6.80
2022-11-14T22:19:42.080Z,6.80
2022-11-14T22:22:29.906Z,6.70
2022-11-14T22:25:16.615Z,6.70
2022-11-14T22:28:03.360Z,6.70
2022-11-14T22:30:50.327Z,6.60
2022-11-14T22:33:42.686Z,6.60
2022-11-14T22:36:32.956Z,6.60
2022-11-14T22:39:20.702Z,6.60
2022-11-14T22:42:09.085Z,6.70
2022-11-14T22:44:55.568Z,6.70
2022-11-14T22:47:41.945Z,6.60
2022-11-14T22:50:28.336Z,6.70
2022-11-14T22:53:15.016Z,6.60
2022-11-14T22:56:03.784Z,6.60
2022-11-14T22:58:50.675Z,6.60
2022-11-14T23:01:37.339Z,6.60
2022-11-14T23:04:24.125Z,6.60
2022-11-14T23:07:10.535Z,6.60
2022-11-14T23:09:57.485Z,6.50
2022-11-14T23:12:45.059Z,6.60
2022-11-14T23:15:31.777Z,6.50
2022-11-14T23:18:18.144Z,6.50
2022-11-14T23:21:05.868Z,6.50
2022-11-14T23:23:55.826Z,6.50
2022-11-14T23:26:42.436Z,6.50
2022-11-14T23:29:30.545Z,6.50
2022-11-14T23:32:16.931Z,6.50
2022-11-14T23:35:03.629Z,6.50
2022-11-14T23:37:50.016Z,6.50
2022-11-14T23:40:36.529Z,6.40
2022-11-14T23:43:22.991Z,6.40
2022-11-14T23:46:11.046Z,6.30
2022-11-14T23:48:57.608Z,6.40
2022-11-14T23:51:44.209Z,6.50
2022-11-14T23:54:30.581Z,6.60
2022-11-14T23:57:17.140Z,6.70
